Time;durP1;ratioP1;P1;durP2;ratioP2;P2;SDS_P1;SDS_P2;PMS_P1;PMS_P2;Temp;Humidity;BMP_temperature;BMP_pressure;BME280_temperature;BME280_humidity;BME280_pressure;Samples;Min_cycle;Max_cycle;Signal;HPM_P1;HPM_P2
2021/04/11 00:02:21;;;;;;;12.77;4.60;;;;;;;2.76;100.00;100094.72;5082520;28;20029;-79
2021/04/11 00:04:46;;;;;;;13.77;3.92;;;;;;;2.74;100.00;100094.75;5081681;28;20039;-79
2021/04/11 00:07:11;;;;;;;16.73;6.38;;;;;;;2.78;100.00;100077.69;5095948;28;20016;-79
2021/04/11 00:09:37;;;;;;;9.45;4.25;;;;;;;2.78;100.00;100079.38;5080938;28;20095;-79
2021/04/11 00:12:02;;;;;;;21.35;4.60;;;;;;;2.79;100.00;100074.25;5081782;28;20024;-79
2021/04/11 00:14:27;;;;;;;13.00;2.95;;;;;;;2.84;100.00;100071.75;5082372;28;20028;-79
2021/04/11 00:16:52;;;;;;;16.35;5.50;;;;;;;2.90;100.00;100064.09;5098300;28;20433;-80
2021/04/11 00:19:18;;;;;;;12.18;5.30;;;;;;;2.95;100.00;100054.69;5099509;28;20035;-80
2021/04/11 00:21:43;;;;;;;14.05;4.70;;;;;;;2.97;100.00;100046.19;5084888;28;20032;-79
2021/04/11 00:24:08;;;;;;;6.10;3.05;;;;;;;3.00;100.00;100038.50;5085796;28;20020;-79
2021/04/11 00:26:34;;;;;;;12.50;4.35;;;;;;;3.02;100.00;100029.97;5086609;28;20032;-79
2021/04/11 00:28:59;;;;;;;13.18;5.22;;;;;;;3.06;100.00;100039.38;5101889;28;20017;-79
2021/04/11 00:31:24;;;;;;;8.73;2.95;;;;;;;3.06;100.00;100012.06;5079439;28;20440;-79
2021/04/11 00:33:49;;;;;;;12.48;5.18;;;;;;;3.12;100.00;100027.44;5095086;28;20024;-79
2021/04/11 00:36:18;;;;;;;10.45;4.97;;;;;;;3.17;100.00;100030.00;5079652;28;20104;-80
2021/04/11 00:38:43;;;;;;;14.80;5.75;;;;;;;3.22;100.00;100020.66;5079373;28;20020;-80
2021/04/11 00:41:29;;;;;;;8.75;3.90;;;;;;;3.27;100.00;100016.41;5080603;28;20031;-79
2021/04/11 00:43:56;;;;;;;9.07;4.70;;;;;;;3.36;100.00;99995.91;5079553;28;20480;-79
2021/04/11 00:46:33;;;;;;;14.80;5.90;;;;;;;3.40;100.00;100007.88;5080397;28;20056;-79
2021/04/11 00:49:00;;;;;;;11.40;4.72;;;;;;;3.44;100.00;100001.91;5080184;28;20032;-79
2021/04/11 00:51:28;;;;;;;9.18;4.22;;;;;;;3.53;100.00;99995.09;5096076;28;20039;-79
2021/04/11 00:54:02;;;;;;;11.80;5.82;;;;;;;3.56;100.00;99992.53;5095263;28;20021;-79
2021/04/11 00:56:28;;;;;;;13.38;6.32;;;;;;;3.61;100.00;99994.25;5096139;28;20384;-79
2021/04/11 00:58:54;;;;;;;16.88;6.32;;;;;;;3.67;100.00;99985.69;5080943;28;20472;-78
2021/04/11 01:01:20;;;;;;;11.73;6.45;;;;;;;3.70;100.00;99978.00;5083133;28;20025;-78
2021/04/11 01:03:45;;;;;;;12.77;6.28;;;;;;;3.70;100.00;99957.50;5084553;28;20020;-79
2021/04/11 01:06:16;;;;;;;15.57;5.85;;;;;;;3.74;100.00;99953.22;5077413;28;20081;-79
2021/04/11 01:08:42;;;;;;;18.45;8.18;;;;;;;3.77;100.00;99946.38;5094702;28;20028;-79
2021/04/11 01:11:14;;;;;;;11.50;5.93;;;;;;;3.80;100.00;99938.69;5094293;28;20024;-79
2021/04/11 01:13:45;;;;;;;15.48;8.38;;;;;;;3.83;100.00;99941.22;5078438;28;20059;-79
2021/04/11 01:16:11;;;;;;;6.30;3.47;;;;;;;3.86;100.00;99936.09;5079878;28;20025;-79
2021/04/11 01:18:38;;;;;;;9.70;4.80;;;;;;;3.86;100.00;99923.28;5096439;28;20069;-79
2021/04/11 01:21:09;;;;;;;10.43;5.70;;;;;;;3.90;100.00;99932.66;5096580;28;20080;-79
2021/04/11 01:23:51;;;;;;;15.23;6.05;;;;;;;3.91;100.00;99936.97;5096429;28;20020;-79
2021/04/11 01:26:19;;;;;;;17.30;8.20;;;;;;;3.93;100.00;99916.41;5080812;28;20024;-79
2021/04/11 01:28:47;;;;;;;14.68;6.65;;;;;;;3.94;100.00;99913.00;5081187;28;20025;-79
2021/04/11 01:31:13;;;;;;;11.45;5.47;;;;;;;3.99;100.00;99905.31;5095868;28;20020;-79
2021/04/11 01:33:43;;;;;;;12.77;6.45;;;;;;;3.99;100.00;99911.28;5097783;28;20024;-79
2021/04/11 01:36:13;;;;;;;16.15;7.97;;;;;;;4.02;100.00;99893.31;5098540;28;20068;-79
2021/04/11 01:38:39;;;;;;;12.90;8.15;;;;;;;4.05;100.00;99889.91;5083392;28;20028;-79
2021/04/11 01:41:17;;;;;;;18.58;9.05;;;;;;;4.05;100.00;99888.19;5096657;28;20059;-79
2021/04/11 01:43:44;;;;;;;16.45;9.02;;;;;;;4.08;100.00;99880.47;5096481;28;20017;-79
2021/04/11 01:46:11;;;;;;;15.70;9.80;;;;;;;4.09;100.00;99886.44;5080591;28;20094;-79
2021/04/11 01:48:37;;;;;;;14.05;8.27;;;;;;;4.12;100.00;99881.31;5096040;28;20088;-79
2021/04/11 01:51:06;;;;;;;16.83;9.43;;;;;;;4.14;100.00;99879.59;5080652;28;20106;-79
2021/04/11 01:53:31;;;;;;;14.20;8.32;;;;;;;4.12;100.00;99871.91;5080124;28;20024;-79
2021/04/11 01:55:58;;;;;;;12.57;6.50;;;;;;;4.16;100.00;99872.75;5095951;28;20035;-79
2021/04/11 01:58:24;;;;;;;13.75;7.95;;;;;;;4.19;100.00;99871.88;5082107;28;20020;-79
2021/04/11 02:01:02;;;;;;;11.82;6.95;;;;;;;4.20;100.00;99838.53;5096762;28;20514;-79
2021/04/11 02:03:28;;;;;;;10.00;4.72;;;;;;;4.25;100.00;99852.19;5081497;28;20107;-80
2021/04/11 02:05:53;;;;;;;13.18;7.35;;;;;;;4.28;100.00;99841.91;5082203;28;20051;-80
2021/04/11 02:08:22;;;;;;;18.23;10.07;;;;;;;4.30;100.00;99847.03;5098131;28;20484;-80
2021/04/11 02:10:51;;;;;;;12.20;5.60;;;;;;;4.31;100.00;99847.03;5082159;28;20048;-80
2021/04/11 02:13:22;;;;;;;15.45;8.88;;;;;;;4.33;100.00;99845.28;5082333;28;20043;-79
2021/04/11 02:15:50;;;;;;;17.05;9.98;;;;;;;4.36;100.00;99835.00;5077744;28;20027;-79
2021/04/11 02:18:17;;;;;;;16.10;8.77;;;;;;;4.43;100.00;99837.56;5094744;28;20028;-79
2021/04/11 02:20:43;;;;;;;16.05;9.90;;;;;;;4.42;100.00;99834.13;5079261;28;20080;-79
2021/04/11 02:23:10;;;;;;;17.60;10.40;;;;;;;4.43;100.00;99835.00;5078699;28;20024;-79
2021/04/11 02:25:41;;;;;;;17.15;10.23;;;;;;;4.49;100.00;99840.09;5080949;28;20025;-79
2021/04/11 02:28:07;;;;;;;16.38;11.18;;;;;;;4.52;100.00;99847.78;5079638;28;20020;-79
2021/04/11 02:30:35;;;;;;;17.90;11.52;;;;;;;4.55;100.00;99845.19;5079793;28;20031;-79
2021/04/11 02:33:00;;;;;;;17.00;10.48;;;;;;;4.54;100.00;99841.78;5082686;28;20024;-79
2021/04/11 02:35:27;;;;;;;21.20;10.90;;;;;;;4.55;100.00;99830.63;5082939;28;20035;-79
2021/04/11 02:38:00;;;;;;;15.57;9.90;;;;;;;4.55;100.00;99830.63;5080169;28;20119;-80
2021/04/11 02:40:32;;;;;;;10.32;6.47;;;;;;;4.56;100.00;99810.97;5098463;28;20028;-80
2021/04/11 02:43:02;;;;;;;10.38;5.57;;;;;;;4.58;100.00;99810.06;5100175;28;20037;-80
2021/04/11 02:45:32;;;;;;;16.35;10.82;;;;;;;4.61;100.00;99802.34;5104052;28;20048;-80
2021/04/11 02:47:57;;;;;;;15.70;9.93;;;;;;;4.64;100.00;99800.63;5077111;28;20391;-80
2021/04/11 02:50:26;;;;;;;16.60;11.05;;;;;;;4.66;100.00;99797.19;5077921;28;20025;-80
2021/04/11 02:52:59;;;;;;;16.83;10.93;;;;;;;4.69;100.00;99799.75;5075735;28;20032;-80
2021/04/11 02:55:29;;;;;;;19.30;10.80;;;;;;;4.71;100.00;99799.72;5076858;28;20044;-80
2021/04/11 02:57:55;;;;;;;11.80;7.35;;;;;;;4.72;100.00;99792.03;5076857;28;20024;-79
2021/04/11 03:00:23;;;;;;;16.77;10.60;;;;;;;4.75;100.00;99792.00;5092705;28;20021;-79
2021/04/11 03:02:49;;;;;;;15.80;9.82;;;;;;;4.77;100.00;99792.84;5078644;28;20485;-79
2021/04/11 03:05:17;;;;;;;16.45;11.15;;;;;;;4.78;100.00;99788.56;5078731;28;20036;-79
2021/04/11 03:07:48;;;;;;;17.48;12.38;;;;;;;4.79;100.00;99790.25;5079280;28;20369;-79
2021/04/11 03:10:21;;;;;;;20.58;12.85;;;;;;;4.79;100.00;99785.97;5078325;28;20024;-79
2021/04/11 03:12:48;;;;;;;15.90;9.55;;;;;;;4.82;100.00;99785.94;5081087;28;20029;-79
2021/04/11 03:15:14;;;;;;;21.98;14.05;;;;;;;4.84;100.00;99785.94;5080649;28;20027;-79
2021/04/11 03:17:41;;;;;;;19.77;13.02;;;;;;;4.85;100.00;99782.50;5082484;28;20032;-79
2021/04/11 03:20:14;;;;;;;25.98;15.82;;;;;;;4.87;100.00;99790.22;5077988;28;20388;-79
2021/04/11 03:22:39;;;;;;;24.75;16.15;;;;;;;4.89;100.00;99783.34;5074996;28;20108;-80
2021/04/11 03:25:06;;;;;;;20.80;13.77;;;;;;;4.90;100.00;99785.06;5074887;28;20051;-80
2021/04/11 03:28:00;;;;;;;21.67;14.25;;;;;;;4.93;100.00;99785.03;5076413;28;20028;-80
2021/04/11 03:30:46;;;;;;;22.67;14.52;;;;;;;4.93;100.00;99767.06;5076003;28;20380;-80
2021/04/11 03:33:16;;;;;;;18.48;10.05;;;;;;;4.95;100.00;99765.28;5074590;28;20092;-79
2021/04/11 03:35:44;;;;;;;18.92;12.68;;;;;;;4.95;100.00;99775.56;5076795;28;20028;-79
2021/04/11 03:38:11;;;;;;;14.85;9.00;;;;;;;4.96;100.00;99764.47;5078497;28;20028;-79
2021/04/11 03:40:39;;;;;;;21.45;12.68;;;;;;;4.98;100.00;99762.72;5079018;28;20040;-79
2021/04/11 03:43:14;;;;;;;26.35;16.67;;;;;;;4.99;100.00;99770.41;5080892;28;20025;-79
2021/04/11 03:45:40;;;;;;;26.17;16.35;;;;;;;4.99;100.00;99760.13;5080728;28;20036;-79
2021/04/11 03:48:14;;;;;;;27.88;17.60;;;;;;;5.01;100.00;99765.25;5083277;28;20024;-79
2021/04/11 03:50:48;;;;;;;27.88;17.00;;;;;;;5.04;100.00;99757.50;5085125;28;20043;-79
2021/04/11 03:53:17;;;;;;;28.60;18.30;;;;;;;5.05;100.00;99761.81;5076306;28;20068;-79
2021/04/11 03:55:46;;;;;;;28.60;17.33;;;;;;;5.06;100.00;99759.22;5077634;28;20029;-79
2021/04/11 03:58:28;;;;;;;24.23;14.02;;;;;;;5.07;100.00;99750.63;5076318;28;20028;-80
2021/04/11 04:01:00;;;;;;;21.10;11.65;;;;;;;5.07;100.00;99735.19;5077808;28;20115;-80
2021/04/11 04:03:30;;;;;;;18.75;12.35;;;;;;;5.08;100.00;99733.50;5077362;28;20388;-80
2021/04/11 04:06:02;;;;;;;19.23;14.00;;;;;;;5.10;100.00;99731.75;5076775;28;20058;-80
2021/04/11 04:08:27;;;;;;;18.63;13.38;;;;;;;5.10;100.00;99736.06;5076841;28;20032;-80
2021/04/11 04:11:35;;;;;;;20.52;14.45;;;;;;;5.09;100.00;99719.78;5078895;28;20033;-79
2021/04/11 04:14:24;;;;;;;21.45;15.05;;;;;;;5.11;100.00;99730.91;5040387;28;20032;-80
2021/04/11 04:17:11;;;;;;;24.85;16.45;;;;;;;5.12;100.00;99734.34;5081420;28;20076;-79
2021/04/11 04:19:45;;;;;;;22.73;16.05;;;;;;;5.13;100.00;99734.31;5081617;28;20024;-79
2021/04/11 04:22:26;;;;;;;23.08;15.15;;;;;;;5.15;100.00;99742.84;5085008;28;20165;-79
2021/04/11 04:25:19;;;;;;;22.58;14.80;;;;;;;5.17;100.00;99736.00;5077258;28;20084;-79
2021/04/11 04:28:24;;;;;;;24.80;14.68;;;;;;;5.20;100.00;99735.97;5076908;28;20496;-79
2021/04/11 04:31:03;;;;;;;28.65;18.10;;;;;;;5.20;100.00;99735.97;5039276;28;20068;-79
2021/04/11 04:33:42;;;;;;;27.98;17.75;;;;;;;5.20;100.00;99737.66;5077605;28;20024;-79
2021/04/11 04:36:32;;;;;;;25.55;16.77;;;;;;;5.19;100.00;99731.66;5078106;28;20025;-79
2021/04/11 04:39:09;;;;;;;26.77;17.17;;;;;;;5.19;100.00;99721.38;5077174;28;20056;-79
2021/04/11 04:41:47;;;;;;;30.77;18.63;;;;;;;5.21;100.00;99726.53;5078042;28;20028;-79
2021/04/11 04:44:40;;;;;;;26.60;18.55;;;;;;;5.22;100.00;99733.38;5077930;28;20040;-80
2021/04/11 04:47:14;;;;;;;22.60;16.25;;;;;;;5.23;100.00;99735.94;5077729;28;20056;-79
2021/04/11 04:49:46;;;;;;;22.58;14.57;;;;;;;5.26;100.00;99722.19;5077959;28;20074;-79
2021/04/11 04:52:18;;;;;;;28.45;17.52;;;;;;;5.25;100.00;99730.75;5079795;28;20028;-79
2021/04/11 04:54:49;;;;;;;26.63;17.52;;;;;;;5.25;100.00;99720.47;5083540;28;20024;-79
2021/04/11 04:57:33;;;;;;;28.65;18.17;;;;;;;5.25;100.00;99718.75;5076386;28;20402;-79
2021/04/11 05:00:22;;;;;;;31.23;17.65;;;;;;;5.27;100.00;99723.91;5077785;28;20036;-79
2021/04/11 05:03:16;;;;;;;25.55;17.27;;;;;;;5.29;100.00;99722.16;5077308;28;20376;-79
2021/04/11 05:05:47;;;;;;;24.58;17.88;;;;;;;5.29;100.00;99725.56;5078056;28;20144;-79
2021/04/11 05:08:30;;;;;;;23.15;16.08;;;;;;;5.31;100.00;99728.13;5077098;28;20028;-79
2021/04/11 05:11:13;;;;;;;26.85;17.48;;;;;;;5.31;100.00;99720.41;5076106;28;20024;-79
2021/04/11 05:13:47;;;;;;;23.33;14.27;;;;;;;5.32;100.00;99715.25;5078750;28;20431;-79
2021/04/11 05:16:21;;;;;;;23.77;15.07;;;;;;;5.34;100.00;99715.25;5078704;28;20530;-79
2021/04/11 05:18:56;;;;;;;;;;;;;;;5.36;100.00;99712.63;5079844;28;20032;-79
2021/04/11 05:21:26;;;;;;;24.80;16.88;;;;;;;5.39;100.00;99698.06;5078530;28;19908;-79
2021/04/11 05:23:55;;;;;;;26.88;17.63;;;;;;;5.41;100.00;99708.31;5080793;28;20179;-79
2021/04/11 05:26:31;;;;;;;28.83;18.80;;;;;;;5.44;100.00;99701.41;5082138;28;20024;-79
2021/04/11 05:28:56;;;;;;;29.10;19.38;;;;;;;5.43;100.00;99698.88;5078779;28;20063;-79
2021/04/11 05:31:29;;;;;;;30.43;21.33;;;;;;;5.46;100.00;99703.97;5076518;28;20120;-79
2021/04/11 05:33:56;;;;;;;30.48;21.02;;;;;;;5.48;100.00;99691.94;5076939;28;20698;-79
2021/04/11 05:36:28;;;;;;;24.42;14.52;;;;;;;5.49;100.00;99694.50;5075965;28;20480;-79
2021/04/11 05:39:11;;;;;;;30.23;21.02;;;;;;;5.53;100.00;99695.31;5076567;28;20077;-79
2021/04/11 05:41:39;;;;;;;29.88;21.67;;;;;;;5.54;100.00;99691.88;5076629;28;20025;-79
2021/04/11 05:44:09;;;;;;;30.95;21.08;;;;;;;5.56;100.00;99685.00;5077110;28;20457;-79
2021/04/11 05:46:57;;;;;;;27.80;18.40;;;;;;;5.59;100.00;99684.97;5078179;28;20056;-79
2021/04/11 05:49:35;;;;;;;31.38;21.98;;;;;;;5.59;100.00;99687.53;5078756;28;20108;-79
2021/04/11 05:52:08;;;;;;;29.45;20.92;;;;;;;5.63;100.00;99686.59;5077645;28;20043;-79
2021/04/11 05:54:40;;;;;;;33.03;22.73;;;;;;;5.65;100.00;99686.59;5078954;28;20020;-79
2021/04/11 05:57:10;;;;;;;23.83;14.98;;;;;;;5.67;100.00;99688.28;5080725;28;20078;-79
2021/04/11 05:59:49;;;;;;;39.95;23.58;;;;;;;5.69;100.00;99683.97;5081175;28;20020;-79
2021/04/11 06:02:39;;;;;;;54.50;35.03;;;;;;;5.70;100.00;99680.53;5076030;28;20473;-79
2021/04/11 06:05:16;;;;;;;58.03;40.45;;;;;;;5.74;100.00;99682.19;5076088;28;20032;-79
2021/04/11 06:07:52;;;;;;;38.03;26.23;;;;;;;5.75;100.00;99681.31;5076803;28;20028;-79
2021/04/11 06:10:31;;;;;;;33.58;24.88;;;;;;;5.82;100.00;99686.38;5076762;28;20025;-79
2021/04/11 06:13:20;;;;;;;30.45;20.73;;;;;;;5.87;100.00;99682.03;5077875;28;20029;-79
2021/04/11 06:16:11;;;;;;;35.45;26.13;;;;;;;5.94;100.00;99681.97;5076639;28;20032;-78
2021/04/11 06:18:43;;;;;;;36.30;24.80;;;;;;;5.97;100.00;99686.22;5076510;28;20025;-79
2021/04/11 06:21:20;;;;;;;37.88;23.75;;;;;;;6.00;100.00;99683.59;5077384;28;20107;-79
2021/04/11 06:24:15;;;;;;;33.72;22.67;;;;;;;6.03;100.00;99688.69;5077568;28;20051;-79
2021/04/11 06:26:47;;;;;;;33.78;23.02;;;;;;;6.05;100.00;99686.97;5079095;28;20080;-79
2021/04/11 06:29:36;;;;;;;36.20;23.05;;;;;;;6.11;100.00;99686.03;5082712;28;20500;-79
2021/04/11 06:32:13;;;;;;;33.42;22.15;;;;;;;6.13;100.00;99686.88;5077868;28;20565;-79
2021/04/11 06:34:43;;;;;;;33.33;23.38;;;;;;;6.12;100.00;99680.84;5078165;28;20492;-79
2021/04/11 06:37:14;;;;;;;37.17;22.88;;;;;;;6.16;100.00;99682.53;5075645;28;20035;-79
2021/04/11 06:39:41;;;;;;;34.30;24.23;;;;;;;6.16;100.00;99694.56;5075862;28;20477;-79
2021/04/11 06:42:38;;;;;;;41.90;23.90;;;;;;;6.18;100.00;99685.91;5074825;28;20024;-79
2021/04/11 06:45:14;;;;;;;38.08;23.75;;;;;;;6.27;100.00;99689.25;5075445;28;20028;-79
2021/04/11 06:47:58;;;;;;;29.35;19.55;;;;;;;6.27;100.00;99690.09;5075016;28;20068;-79
2021/04/11 06:50:43;;;;;;;30.93;21.63;;;;;;;6.33;100.00;99684.84;5078061;28;20059;-80
2021/04/11 06:53:42;;;;;;;30.45;21.75;;;;;;;6.43;100.00;99690.69;5077467;28;20032;-80
2021/04/11 06:56:16;;;;;;;32.70;22.63;;;;;;;6.48;100.00;99691.50;5080745;28;20032;-79
2021/04/11 06:59:14;;;;;;;29.15;21.55;;;;;;;6.60;100.00;99691.28;5080217;28;20047;-79
2021/04/11 07:01:54;;;;;;;26.50;20.40;;;;;;;6.67;100.00;99684.31;5080631;28;20025;-79
2021/04/11 07:04:28;;;;;;;28.27;20.27;;;;;;;6.75;100.00;99686.78;5075572;28;20027;-79
2021/04/11 07:07:38;;;;;;;29.75;21.05;;;;;;;6.74;100.00;99664.44;5075246;28;20077;-79
2021/04/11 07:10:32;;;;;;;27.75;20.30;;;;;;;6.81;100.00;99690.09;5073817;28;20492;-79
2021/04/11 07:13:15;;;;;;;26.80;18.70;;;;;;;6.79;100.00;99680.69;5074545;28;20032;-79
2021/04/11 07:15:59;;;;;;;27.50;19.40;;;;;;;6.83;100.00;99684.91;5075901;28;20116;-79
2021/04/11 07:19:04;;;;;;;35.28;22.98;;;;;;;6.84;100.00;99673.75;5074684;28;20024;-79
2021/04/11 07:21:57;;;;;;;30.45;22.00;;;;;;;6.96;100.00;99673.53;5074611;28;20086;-79
2021/04/11 07:24:50;;;;;;;29.77;21.88;;;;;;;7.04;100.00;99679.38;5076589;28;20028;-79
2021/04/11 07:27:27;;;;;;;27.77;21.13;;;;;;;7.07;100.00;99678.47;5075446;28;20030;-79
2021/04/11 07:30:03;;;;;;;31.40;22.90;;;;;;;7.08;100.00;99675.88;5076677;28;20038;-79
2021/04/11 07:32:50;;;;;;;32.05;22.27;;;;;;;7.11;100.00;99675.81;5080433;28;20081;-79
2021/04/11 07:35:36;;;;;;;29.02;20.95;;;;;;;7.16;100.00;99675.72;5076092;28;20020;-79
2021/04/11 07:38:05;;;;;;;30.63;20.25;;;;;;;7.28;100.00;99682.38;5074746;28;20021;-79
2021/04/11 07:40:44;;;;;;;30.85;21.38;;;;;;;7.46;100.00;99674.28;5075598;28;20024;-79
2021/04/11 07:43:26;;;;;;;26.00;19.23;;;;;;;7.40;100.00;99671.84;5074555;28;20025;-79
2021/04/11 07:46:13;;;;;;;33.50;21.23;;;;;;;7.55;100.00;99674.13;5073903;28;20388;-79
2021/04/11 07:48:52;;;;;;;24.58;18.40;;;;;;;7.50;100.00;99678.50;5076628;28;20047;-79
2021/04/11 07:51:45;;;;;;;27.50;19.63;;;;;;;7.58;100.00;99680.94;5076997;28;20035;-79
2021/04/11 07:54:51;;;;;;;29.02;19.73;;;;;;;7.69;100.00;99680.72;5077854;28;20033;-79
2021/04/11 07:57:40;;;;;;;28.00;19.40;;;;;;;7.73;100.00;99684.94;5079889;28;20046;-79
2021/04/11 08:00:26;;;;;;;26.05;19.20;;;;;;;7.79;100.00;99690.00;5077010;28;20047;-79
2021/04/11 08:03:19;;;;;;;25.63;17.88;;;;;;;7.91;100.00;99700.03;5076550;28;20527;-80
2021/04/11 08:06:09;;;;;;;23.30;17.13;;;;;;;7.95;100.00;99704.25;5075605;28;20051;-79
2021/04/11 08:09:09;;;;;;;23.55;17.85;;;;;;;7.99;100.00;99711.06;5077811;28;20040;-79
2021/04/11 08:12:13;;;;;;;22.58;16.25;;;;;;;8.14;100.00;99709.03;5076267;28;20025;-79
2021/04/11 08:14:49;;;;;;;21.95;15.88;;;;;;;8.00;100.00;99705.00;5078358;28;20024;-80
2021/04/11 08:17:38;;;;;;;23.23;16.42;;;;;;;8.40;100.00;99711.88;5077344;28;20028;-79
2021/04/11 08:20:25;;;;;;;21.35;16.05;;;;;;;8.49;100.00;99700.50;5080493;28;20459;-79
2021/04/11 08:23:21;;;;;;;23.65;16.15;;;;;;;8.88;100.00;99703.88;5079837;28;20020;-79
2021/04/11 08:26:14;;;;;;;;;;;;;;;8.45;100.00;99707.47;5081870;28;20047;-79
2021/04/11 08:29:10;;;;;;;22.20;13.95;;;;;;;8.46;100.00;99711.75;5081903;28;19908;-80
2021/04/11 08:32:00;;;;;;;23.92;15.90;;;;;;;8.57;100.00;99715.84;5081276;28;20035;-79
2021/04/11 08:34:40;;;;;;;21.17;15.10;;;;;;;8.46;100.00;99721.25;5081479;28;20051;-79
2021/04/11 08:37:26;;;;;;;21.67;14.95;;;;;;;8.56;100.00;99719.28;5085785;28;20020;-79
2021/04/11 08:40:04;;;;;;;22.85;15.00;;;;;;;8.60;100.00;99708.84;5087559;28;20026;-79
2021/04/11 08:42:40;;;;;;;19.50;14.27;;;;;;;9.33;100.00;99708.75;5088813;28;20473;-80
2021/04/11 08:45:18;;;;;;;17.48;12.82;;;;;;;9.74;100.00;99709.34;5084736;28;20032;-80
2021/04/11 08:47:56;;;;;;;17.80;13.57;;;;;;;9.61;100.00;99705.41;5086921;28;20032;-80
2021/04/11 08:50:37;;;;;;;15.40;11.52;;;;;;;9.53;100.00;99715.09;5085558;28;20028;-79
2021/04/11 08:53:19;;;;;;;17.95;11.45;;;;;;;9.78;100.00;99704.91;5085157;28;20051;-80
2021/04/11 08:56:02;;;;;;;15.63;11.73;;;;;;;10.26;100.00;99700.06;5088041;28;20425;-80
2021/04/11 08:58:52;;;;;;;16.98;11.43;;;;;;;10.40;100.00;99712.56;5086511;28;20024;-80
2021/04/11 09:01:40;;;;;;;13.45;10.45;;;;;;;10.62;96.99;99709.31;5087209;28;20021;-80
2021/04/11 09:04:32;;;;;;;12.93;9.02;;;;;;;10.26;100.00;99705.22;5088267;28;20499;-80
2021/04/11 09:07:17;;;;;;;12.73;9.27;;;;;;;10.21;100.00;99707.06;5085673;28;20028;-80
2021/04/11 09:10:09;;;;;;;11.00;7.63;;;;;;;10.03;100.00;99710.22;5101091;28;20016;-80
2021/04/11 09:12:58;;;;;;;10.95;6.95;;;;;;;9.97;100.00;99728.53;5058872;28;20040;-80
2021/04/11 09:15:47;;;;;;;11.10;7.40;;;;;;;9.83;99.72;99718.59;5085635;28;20058;-80
2021/04/11 09:18:28;;;;;;;10.68;7.28;;;;;;;9.79;100.00;99724.72;5087121;28;20031;-80
2021/04/11 09:21:24;;;;;;;10.25;7.40;;;;;;;9.75;100.00;99741.25;5103178;28;20028;-80
2021/04/11 09:24:10;;;;;;;11.38;6.80;;;;;;;10.89;95.33;99736.09;5103352;28;20031;-80
2021/04/11 09:27:05;;;;;;;9.73;6.72;;;;;;;11.84;92.61;99728.44;5084217;28;20028;-79
2021/04/11 09:29:51;;;;;;;11.25;6.60;;;;;;;10.62;98.11;99719.66;5084836;28;20112;-79
2021/04/11 09:32:33;;;;;;;10.10;6.90;;;;;;;9.93;100.00;99729.53;5087404;28;20434;-80
2021/04/11 09:35:14;;;;;;;9.35;6.40;;;;;;;9.47;100.00;99733.41;5085235;28;20447;-80
2021/04/11 09:37:51;;;;;;;9.35;6.18;;;;;;;9.29;100.00;99734.72;5087532;28;20060;-80
2021/04/11 09:40:36;;;;;;;11.18;6.05;;;;;;;9.20;100.00;99733.22;5086049;28;20024;-79
2021/04/11 09:43:32;;;;;;;9.25;6.28;;;;;;;9.08;100.00;99743.88;5096188;28;20016;-78
2021/04/11 09:46:18;;;;;;;11.82;6.97;;;;;;;9.03;100.00;99756.94;5099256;28;20436;-79
2021/04/11 09:49:25;;;;;;;10.93;8.05;;;;;;;8.92;100.00;99746.84;5081662;28;20430;-80
2021/04/11 09:52:21;;;;;;;13.43;10.48;;;;;;;8.67;100.00;99764.69;5099827;28;20028;-80
2021/04/11 09:55:04;;;;;;;13.63;10.82;;;;;;;8.68;100.00;99773.28;5081001;28;20024;-80
2021/04/11 09:57:59;;;;;;;14.60;11.75;;;;;;;9.47;100.00;99779.97;5081883;28;20111;-80
2021/04/11 10:00:25;;;;;;;;;;;;;;;9.47;100.00;99782.56;5081252;28;20032;-80
2021/04/11 10:03:05;;;;;;;13.23;10.90;;;;;;;9.17;100.00;99779.88;5081292;28;19908;-80
2021/04/11 10:06:13;;;;;;;12.38;10.07;;;;;;;8.80;100.00;99785.09;5082931;28;20263;-80
2021/04/11 10:09:04;;;;;;;13.07;10.77;;;;;;;9.39;99.70;99795.69;5080714;28;20017;-80
2021/04/11 10:11:52;;;;;;;14.00;11.75;;;;;;;9.03;99.11;99800.91;5081488;28;20026;-80
2021/04/11 10:14:23;;;;;;;14.45;11.88;;;;;;;9.15;99.61;99802.34;5082076;28;20081;-80
2021/04/11 10:16:59;;;;;;;16.25;13.15;;;;;;;9.19;99.55;99809.16;5083319;28;20029;-80
2021/04/11 10:19:35;;;;;;;15.55;13.27;;;;;;;9.76;96.10;99811.13;5080536;28;20024;-80
2021/04/11 10:22:25;;;;;;;12.32;10.07;;;;;;;9.63;93.56;99801.97;5081962;28;20027;-80
2021/04/11 10:25:21;;;;;;;15.00;12.90;;;;;;;9.94;94.94;99798.56;5081961;28;20020;-80
2021/04/11 10:28:11;;;;;;;11.48;8.90;;;;;;;9.34;91.78;99803.59;5082722;28;20028;-80
2021/04/11 10:30:37;;;;;;;11.13;8.75;;;;;;;8.89;94.06;99802.97;5103507;28;20025;-80
2021/04/11 10:33:25;;;;;;;12.35;9.90;;;;;;;9.02;95.31;99811.28;5101412;28;20021;-80
2021/04/11 10:36:14;;;;;;;11.30;9.30;;;;;;;8.68;95.33;99817.22;5083338;28;20028;-80
2021/04/11 10:38:56;;;;;;;14.20;11.68;;;;;;;8.21;98.33;99834.56;5083855;28;20032;-80
2021/04/11 10:41:33;;;;;;;15.60;12.85;;;;;;;7.99;97.48;99831.56;5082304;28;20111;-80
2021/04/11 10:44:17;;;;;;;15.55;13.13;;;;;;;7.69;98.28;99846.75;5081898;28;20024;-80
2021/04/11 10:46:48;;;;;;;17.25;14.57;;;;;;;7.64;100.00;99855.47;5106612;22;20098;-79
2021/04/11 10:49:40;;;;;;;16.50;12.07;;;;;;;7.42;98.98;99867.84;5074649;28;20047;-80
2021/04/11 10:52:36;;;;;;;15.85;12.00;;;;;;;7.26;98.13;99867.25;5073027;28;20059;-80
2021/04/11 10:55:10;;;;;;;15.55;12.75;;;;;;;7.41;99.55;99861.84;5029976;28;20127;-80
2021/04/11 10:58:05;;;;;;;17.70;14.13;;;;;;;7.29;100.00;99865.47;5074178;28;20035;-80
2021/04/11 11:00:49;;;;;;;18.42;13.63;;;;;;;7.04;97.98;99870.16;5074567;28;20028;-81
2021/04/11 11:03:34;;;;;;;15.73;12.20;;;;;;;6.81;98.13;99869.66;5072953;28;20024;-81
2021/04/11 11:06:05;;;;;;;;;;;;;;;7.18;98.39;99882.88;5074878;28;20059;-80
2021/04/11 11:08:41;;;;;;;14.13;11.20;;;;;;;7.21;96.51;99881.97;5074182;28;19915;-80
2021/04/11 11:11:31;;;;;;;15.50;11.40;;;;;;;7.02;98.90;99892.56;5074032;28;20033;-80
2021/04/11 11:14:02;;;;;;;16.63;12.55;;;;;;;6.76;100.00;99887.75;5074110;28;20055;-80
2021/04/11 11:17:05;;;;;;;18.55;13.60;;;;;;;6.43;100.00;99897.63;5073316;28;20098;-80
2021/04/11 11:20:03;;;;;;;17.50;14.52;;;;;;;6.24;100.00;99901.28;5073187;28;20021;-81
2021/04/11 11:22:53;;;;;;;18.98;14.45;;;;;;;6.41;100.00;99909.66;5072856;28;20174;-80
2021/04/11 11:25:28;;;;;;;16.92;12.60;;;;;;;6.02;99.92;99907.53;5073880;28;20031;-80
2021/04/11 11:28:39;;;;;;;19.38;14.75;;;;;;;6.23;100.00;99909.88;5072333;28;20492;-80
2021/04/11 11:31:36;;;;;;;24.45;19.45;;;;;;;6.06;100.00;99916.91;5023444;28;20481;-80
2021/04/11 11:34:33;;;;;;;27.25;19.70;;;;;;;5.96;100.00;99921.31;5073715;28;20050;-80
2021/04/11 11:37:12;;;;;;;23.38;17.35;;;;;;;5.65;100.00;99931.84;5055368;28;20032;-80
2021/04/11 11:40:25;;;;;;;24.20;16.88;;;;;;;5.90;100.00;99931.63;5072660;28;20063;-81
2021/04/11 11:43:06;;;;;;;21.52;16.30;;;;;;;5.99;100.00;99934.16;5065373;28;20178;-80
2021/04/11 11:45:37;;;;;;;19.05;14.63;;;;;;;5.74;100.00;99942.06;5072165;28;20028;-80
2021/04/11 11:48:20;;;;;;;18.17;13.20;;;;;;;5.56;100.00;99944.78;5073719;28;20025;-80
2021/04/11 11:51:04;;;;;;;14.77;10.00;;;;;;;5.27;100.00;99943.28;5073971;28;20047;-80
2021/04/11 11:53:33;;;;;;;14.18;9.32;;;;;;;5.24;100.00;99945.88;5073981;28;20080;-80
2021/04/11 11:56:05;;;;;;;10.88;8.10;;;;;;;5.47;100.00;99942.28;5073594;28;20036;-80
2021/04/11 11:58:40;;;;;;;10.52;7.30;;;;;;;5.42;100.00;99952.63;5089158;28;20028;-80
2021/04/11 12:01:11;;;;;;;10.40;7.13;;;;;;;5.40;100.00;99950.91;5074054;28;20050;-80
2021/04/11 12:03:37;;;;;;;10.30;6.07;;;;;;;5.62;99.89;99967.03;5073944;28;20024;-79
2021/04/11 12:06:14;;;;;;;10.48;6.70;;;;;;;5.75;99.75;99974.63;5089989;28;20118;-79
2021/04/11 12:09:17;;;;;;;8.75;5.28;;;;;;;5.56;98.86;99978.22;5090155;28;20115;-80
2021/04/11 12:12:09;;;;;;;8.52;5.70;;;;;;;5.77;100.00;99978.06;5073972;28;20061;-80
2021/04/11 12:14:57;;;;;;;9.68;5.93;;;;;;;5.81;99.46;99978.03;5089076;28;20028;-78